Time;durP1;ratioP1;P1;durP2;ratioP2;P2;SDS_P1;SDS_P2;PMS_P1;PMS_P2;Temp;Humidity;BMP_temperature;BMP_pressure;BME280_temperature;BME280_humidity;BME280_pressure;Samples;Min_cycle;Max_cycle;Signal;HPM_P1;HPM_P2
2022/05/24 00:01:56;;;;;;;1999.90;999.90;;;;;;;24.19;61.89;94482.41;5029776;28;20025;-75
2022/05/24 00:04:22;;;;;;;1999.90;999.90;;;;;;;24.05;61.75;94469.75;5028554;28;20025;-76
2022/05/24 00:06:47;;;;;;;1999.90;999.90;;;;;;;23.90;61.54;94465.66;5028604;28;20075;-76
2022/05/24 00:09:12;;;;;;;1999.90;999.90;;;;;;;24.31;61.30;94474.50;5031254;28;20026;-76
2022/05/24 00:11:38;;;;;;;1999.90;999.90;;;;;;;24.31;60.68;94485.38;5031610;28;20033;-76
2022/05/24 00:14:03;;;;;;;1999.90;999.90;;;;;;;24.19;61.31;94475.03;5033866;28;20026;-75
2022/05/24 00:16:29;;;;;;;1999.90;999.90;;;;;;;24.23;60.83;94473.03;5034226;28;20026;-76
2022/05/24 00:18:54;;;;;;;1999.90;999.90;;;;;;;23.96;61.48;94477.66;5033478;28;20043;-76
2022/05/24 00:21:19;;;;;;;1999.90;999.90;;;;;;;23.97;61.97;94484.63;5033142;28;20025;-76
2022/05/24 00:23:45;;;;;;;1999.90;999.90;;;;;;;23.94;61.98;94471.84;5032298;28;20478;-76
2022/05/24 00:26:21;;;;;;;1999.90;999.90;;;;;;;24.03;61.41;94458.53;5031613;28;20242;-74
2022/05/24 00:28:46;;;;;;;1999.90;999.90;;;;;;;24.17;61.20;94461.09;5033290;28;20021;-75
2022/05/24 00:31:11;;;;;;;1999.90;999.90;;;;;;;24.14;61.13;94464.59;5033081;28;20751;-75
2022/05/24 00:33:37;;;;;;;1999.90;999.90;;;;;;;24.18;60.81;94465.34;5032329;28;20072;-75
2022/05/24 00:36:02;;;;;;;1999.90;999.90;;;;;;;24.13;60.93;94452.19;5031127;28;20029;-75
2022/05/24 00:38:36;;;;;;;1999.90;999.90;;;;;;;24.21;60.73;94459.09;5033219;28;20029;-76
2022/05/24 00:41:04;;;;;;;1999.90;999.90;;;;;;;24.44;60.58;94472.03;5026515;28;20033;-76
2022/05/24 00:43:42;;;;;;;1999.90;999.90;;;;;;;24.44;60.30;94477.44;5033120;28;20483;-75
2022/05/24 00:46:13;;;;;;;1999.90;999.90;;;;;;;24.32;60.43;94477.97;5033231;28;20148;-75
2022/05/24 00:48:47;;;;;;;;;;;;;;;24.38;60.43;94481.81;5032687;28;20478;-76
2022/05/24 00:51:18;;;;;;;1999.90;999.90;;;;;;;24.11;60.86;94479.03;5013455;28;20652;-75
2022/05/24 00:53:50;;;;;;;1999.90;999.90;;;;;;;24.03;61.65;94483.75;5013398;28;20161;-76
2022/05/24 00:56:51;;;;;;;1999.90;999.90;;;;;;;23.98;61.51;94478.00;5024542;28;20120;-76
2022/05/24 00:59:38;;;;;;;1999.90;999.90;;;;;;;23.78;61.32;94454.16;5025399;28;20516;-76
2022/05/24 01:02:04;;;;;;;1999.90;999.90;;;;;;;23.98;60.55;94456.28;5032853;28;20052;-75
2022/05/24 01:04:29;;;;;;;1999.90;999.90;;;;;;;24.17;60.44;94474.69;5031955;28;20497;-75
2022/05/24 01:06:55;;;;;;;1999.90;999.90;;;;;;;24.02;60.62;94467.88;5032918;28;20029;-75
2022/05/24 01:09:25;;;;;;;1999.90;999.90;;;;;;;24.18;60.52;94476.22;5032557;28;20021;-76
2022/05/24 01:11:55;;;;;;;1999.90;999.90;;;;;;;24.11;60.44;94471.63;5029996;28;20605;-76
2022/05/24 01:14:23;;;;;;;1999.90;999.90;;;;;;;23.98;60.58;94459.75;5032592;28;20022;-76
2022/05/24 01:16:49;;;;;;;1999.90;999.90;;;;;;;23.86;60.68;94455.63;5031856;28;20025;-76
2022/05/24 01:19:24;;;;;;;1999.90;999.90;;;;;;;23.90;60.46;94444.72;5032204;28;20136;-76
2022/05/24 01:21:49;;;;;;;1999.90;999.90;;;;;;;23.86;60.53;94449.44;5030527;28;20039;-77
2022/05/24 01:24:34;;;;;;;1999.90;999.90;;;;;;;23.94;60.79;94453.59;5032375;28;20474;-76
2022/05/24 01:26:59;;;;;;;1999.90;999.90;;;;;;;23.82;60.67;94437.84;5030642;28;20398;-76
2022/05/24 01:29:26;;;;;;;1999.90;999.90;;;;;;;23.93;60.95;94465.63;5031893;28;20029;-75
2022/05/24 01:37:22;;;;;;;1999.90;999.90;;;;;;;23.80;60.81;94448.31;5032509;28;20307;-75
2022/05/24 01:39:52;;;;;;;1999.90;999.90;;;;;;;23.75;61.41;94446.84;5030162;28;20033;-76
2022/05/24 01:42:18;;;;;;;1999.90;999.90;;;;;;;23.75;61.03;94455.00;5030437;28;20171;-76
2022/05/24 01:44:51;;;;;;;1999.90;999.90;;;;;;;23.70;61.23;94460.06;5030975;28;20029;-76
2022/05/24 01:47:18;;;;;;;1999.90;999.90;;;;;;;23.69;61.29;94434.84;5029534;28;20116;-77
2022/05/24 01:49:50;;;;;;;1999.90;999.90;;;;;;;23.73;61.19;94432.88;5030409;28;20466;-76
2022/05/24 01:52:40;;;;;;;1999.90;999.90;;;;;;;23.85;61.15;94453.31;5030978;28;20391;-76
2022/05/24 01:55:10;;;;;;;1999.90;999.90;;;;;;;23.72;60.68;94438.72;5030687;28;20052;-76
2022/05/24 01:57:49;;;;;;;1999.90;999.90;;;;;;;24.00;60.40;94445.75;5030994;28;20038;-77
2022/05/24 02:00:16;;;;;;;1999.90;999.90;;;;;;;23.98;61.03;94448.88;5030211;28;20038;-77
2022/05/24 02:02:42;;;;;;;1999.90;999.90;;;;;;;23.92;60.71;94428.03;5032182;28;20039;-77
2022/05/24 02:05:08;;;;;;;1999.90;999.90;;;;;;;24.06;60.54;94441.44;5032007;28;20083;-76
2022/05/24 02:07:34;;;;;;;1999.90;999.90;;;;;;;23.86;60.54;94428.47;5030664;28;20026;-76
2022/05/24 02:09:59;;;;;;;1999.90;999.90;;;;;;;23.80;60.63;94404.88;5031307;28;20090;-76
2022/05/24 02:12:35;;;;;;;1999.90;999.90;;;;;;;24.05;60.41;94434.44;5030801;28;20112;-77
2022/05/24 02:15:05;;;;;;;1999.90;999.90;;;;;;;24.11;60.47;94427.41;5030135;28;20026;-77
2022/05/24 02:17:46;;;;;;;1999.90;999.90;;;;;;;24.16;60.34;94418.78;5031671;28;20029;-76
2022/05/24 02:20:17;;;;;;;1999.90;999.90;;;;;;;24.10;60.62;94434.75;5031247;28;20474;-76
2022/05/24 02:22:45;;;;;;;1999.90;999.90;;;;;;;24.02;60.69;94427.88;5030640;28;20034;-77
2022/05/24 02:25:16;;;;;;;1999.90;999.90;;;;;;;24.08;60.89;94426.25;5031651;28;20071;-77
2022/05/24 02:27:44;;;;;;;1999.90;999.90;;;;;;;24.04;60.91;94417.38;5030737;28;20036;-75
2022/05/24 02:30:17;;;;;;;1999.90;999.90;;;;;;;24.00;60.50;94421.31;5030965;28;20029;-76
2022/05/24 02:32:43;;;;;;;1999.90;999.90;;;;;;;24.06;60.89;94414.28;5030022;28;20394;-76
2022/05/24 02:35:09;;;;;;;1999.90;999.90;;;;;;;23.97;60.77;94395.75;5030410;28;20032;-76
2022/05/24 02:37:34;;;;;;;1999.90;999.90;;;;;;;24.00;60.38;94415.88;5030282;28;20127;-76
2022/05/24 02:42:44;;;;;;;1999.90;999.90;;;;;;;23.97;60.11;94401.19;5030486;28;20083;-76
2022/05/24 02:45:09;;;;;;;1999.90;999.90;;;;;;;23.73;60.51;94370.44;5030176;28;20029;-76
2022/05/24 02:47:35;;;;;;;1999.90;999.90;;;;;;;23.88;60.35;94383.84;5029996;28;20079;-76
2022/05/24 02:50:02;;;;;;;1999.90;999.90;;;;;;;23.85;59.86;94375.34;5029298;28;20436;-75
2022/05/24 02:52:27;;;;;;;1999.90;999.90;;;;;;;23.45;59.86;94289.31;5029592;28;20056;-76
2022/05/24 02:54:53;;;;;;;1999.90;999.90;;;;;;;24.23;59.96;94402.38;5029581;28;20029;-75
2022/05/24 02:57:18;;;;;;;1999.90;999.90;;;;;;;23.69;60.05;94323.53;5028985;28;20037;-76
2022/05/24 02:59:44;;;;;;;1999.90;999.90;;;;;;;23.88;60.02;94348.53;5029272;28;20033;-76
2022/05/24 03:02:09;;;;;;;1999.90;999.90;;;;;;;24.12;59.79;94374.59;5029569;28;20474;-76
2022/05/24 03:04:35;;;;;;;1999.90;999.90;;;;;;;24.03;58.80;94382.47;5028940;28;20025;-76
2022/05/24 03:09:44;;;;;;;1999.90;999.90;;;;;;;24.08;59.84;94382.03;5030530;28;20032;-75
2022/05/24 03:14:55;;;;;;;1999.90;999.90;;;;;;;24.28;59.45;94398.44;5029946;28;20032;-76
2022/05/24 03:17:22;;;;;;;1999.90;999.90;;;;;;;24.27;59.73;94411.25;5028804;28;20025;-75
2022/05/24 03:19:48;;;;;;;1999.90;999.90;;;;;;;24.26;59.72;94406.22;5029348;28;20075;-75
2022/05/24 03:22:14;;;;;;;1999.90;999.90;;;;;;;24.22;59.66;94395.41;5030317;28;20021;-74
2022/05/24 03:24:40;;;;;;;1999.90;999.90;;;;;;;24.19;59.38;94384.59;5030412;28;20105;-75
2022/05/24 03:27:11;;;;;;;1999.90;999.90;;;;;;;24.31;59.44;94412.00;5029318;28;20120;-75
2022/05/24 03:29:38;;;;;;;1999.90;999.90;;;;;;;24.28;59.07;94398.44;5028860;28;20056;-75
2022/05/24 03:32:04;;;;;;;1999.90;999.90;;;;;;;24.16;59.42;94378.03;5029223;28;20112;-75
2022/05/24 03:34:30;;;;;;;1999.90;999.90;;;;;;;24.08;59.45;94366.47;5028384;28;20520;-75
2022/05/24 03:36:55;;;;;;;1999.90;999.90;;;;;;;24.17;59.26;94386.97;5029809;28;20059;-75
2022/05/24 03:39:20;;;;;;;1999.90;999.90;;;;;;;24.02;59.05;94376.28;5029690;28;20068;-75
2022/05/24 03:41:46;;;;;;;1999.90;999.90;;;;;;;24.08;59.40;94398.31;5030113;28;20026;-76
2022/05/24 03:44:12;;;;;;;1999.90;999.90;;;;;;;24.16;59.74;94404.41;5028725;28;20167;-75
2022/05/24 03:46:38;;;;;;;1999.90;999.90;;;;;;;24.03;58.45;94391.38;5029084;28;20561;-75
2022/05/24 03:49:04;;;;;;;1999.90;999.90;;;;;;;24.25;59.34;94410.13;5028389;28;20033;-76
2022/05/24 03:51:29;;;;;;;1999.90;999.90;;;;;;;24.24;59.42;94386.84;5030052;28;20593;-75
2022/05/24 03:53:54;;;;;;;1999.90;999.90;;;;;;;24.27;59.29;94381.38;5029821;28;20105;-75
2022/05/24 03:56:20;;;;;;;1999.90;999.90;;;;;;;24.35;59.42;94384.75;5029873;28;20521;-75
2022/05/24 03:58:45;;;;;;;1999.90;999.90;;;;;;;24.46;59.29;94403.63;5027707;28;20025;-75
2022/05/24 04:01:11;;;;;;;1999.90;999.90;;;;;;;24.33;58.66;94384.41;5030034;28;20052;-76
2022/05/24 04:03:36;;;;;;;1999.90;999.90;;;;;;;24.52;59.12;94408.22;5029766;28;20029;-75
2022/05/24 04:06:02;;;;;;;1999.90;999.90;;;;;;;24.46;59.11;94395.47;5026943;28;20034;-75
2022/05/24 04:08:29;;;;;;;1999.90;999.90;;;;;;;24.51;59.08;94392.31;5028192;28;20030;-75
2022/05/24 04:11:06;;;;;;;1999.90;999.90;;;;;;;24.66;59.13;94411.91;5029856;28;20469;-75
2022/05/24 04:13:32;;;;;;;1999.90;999.90;;;;;;;24.62;59.01;94417.41;5028389;28;20041;-76
2022/05/24 04:15:58;;;;;;;1999.90;999.90;;;;;;;24.46;58.97;94403.63;5029659;28;20034;-73
2022/05/24 04:18:24;;;;;;;1999.90;999.90;;;;;;;24.61;58.72;94418.56;5029343;28;20088;-75
2022/05/24 04:20:49;;;;;;;1999.90;999.90;;;;;;;24.57;58.99;94417.88;5029035;28;20029;-76
2022/05/24 04:23:16;;;;;;;1999.90;999.90;;;;;;;24.49;58.75;94421.84;5029664;28;20029;-75
2022/05/24 04:25:42;;;;;;;1999.90;999.90;;;;;;;24.47;58.51;94408.69;5028646;28;20049;-76
2022/05/24 04:28:07;;;;;;;1999.90;999.90;;;;;;;24.35;58.83;94374.66;5027617;28;20068;-76
2022/05/24 04:30:33;;;;;;;1999.90;999.90;;;;;;;24.45;59.14;94411.03;5028430;28;20043;-75
2022/05/24 04:32:58;;;;;;;1999.90;999.90;;;;;;;24.48;58.95;94423.03;5029527;28;20535;-75
2022/05/24 04:35:24;;;;;;;1999.90;999.90;;;;;;;24.13;58.87;94390.47;5028736;28;20017;-79
2022/05/24 04:37:50;;;;;;;1999.90;999.90;;;;;;;24.04;59.57;94416.59;5029619;28;20034;-74
2022/05/24 04:40:16;;;;;;;1999.90;999.90;;;;;;;24.04;59.93;94424.75;5028160;28;20029;-73
2022/05/24 04:42:41;;;;;;;1999.90;999.90;;;;;;;24.15;59.94;94432.78;5028743;28;20034;-71
2022/05/24 04:45:10;;;;;;;1999.90;999.90;;;;;;;24.22;59.70;94435.41;5029211;28;20033;-74
2022/05/24 04:47:36;;;;;;;1999.90;999.90;;;;;;;24.09;59.74;94405.28;5023009;28;20018;-72
2022/05/24 04:50:06;;;;;;;1999.90;999.90;;;;;;;24.33;59.53;94433.31;5025162;28;20044;-74
2022/05/24 04:52:34;;;;;;;1999.90;999.90;;;;;;;24.03;59.41;94380.53;5029999;28;20021;-75
2022/05/24 04:54:59;;;;;;;1999.90;999.90;;;;;;;24.37;59.58;94443.00;5028284;28;20029;-75
2022/05/24 04:57:25;;;;;;;1999.90;999.90;;;;;;;24.42;59.52;94446.44;5032085;28;20037;-75
2022/05/24 04:59:51;;;;;;;1999.90;999.90;;;;;;;24.40;59.18;94435.94;5018974;28;20030;-80
2022/05/24 05:02:20;;;;;;;1999.90;999.90;;;;;;;24.50;59.25;94439.69;5030444;28;20385;-74
2022/05/24 05:04:46;;;;;;;1999.90;999.90;;;;;;;24.46;59.07;94428.88;5030135;28;20040;-76
2022/05/24 05:07:12;;;;;;;1999.90;999.90;;;;;;;24.51;59.19;94430.38;5031845;28;20033;-75
2022/05/24 05:09:38;;;;;;;1999.90;999.90;;;;;;;24.18;59.15;94359.38;5029077;28;20030;-73
2022/05/24 05:12:06;;;;;;;1999.90;999.90;;;;;;;24.65;58.69;94435.59;5031097;28;20532;-72
2022/05/24 05:14:32;;;;;;;1999.90;999.90;;;;;;;24.70;58.78;94437.84;5031975;28;20041;-75
2022/05/24 05:16:57;;;;;;;1999.90;999.90;;;;;;;24.56;58.67;94422.50;5031906;28;20021;-76
2022/05/24 05:19:23;;;;;;;1999.90;999.90;;;;;;;24.54;58.99;94424.88;5032742;28;20025;-75
2022/05/24 05:21:48;;;;;;;1999.90;999.90;;;;;;;24.58;59.00;94438.44;5032817;28;20033;-74
2022/05/24 05:24:14;;;;;;;1999.90;999.90;;;;;;;24.45;58.91;94418.41;5032370;28;20030;-74
2022/05/24 05:26:39;;;;;;;1999.90;999.90;;;;;;;24.58;59.06;94438.44;5030374;28;20033;-72
2022/05/24 05:29:04;;;;;;;1999.90;999.90;;;;;;;24.63;59.15;94440.69;5028922;28;20030;-75
2022/05/24 05:31:30;;;;;;;1999.90;999.90;;;;;;;24.58;58.95;94405.81;5026069;28;20561;-74
2022/05/24 05:33:58;;;;;;;1999.90;999.90;;;;;;;24.72;58.83;94426.56;5031123;28;20036;-74
2022/05/24 05:36:27;;;;;;;1999.90;999.90;;;;;;;24.80;58.85;94434.19;5031312;28;20021;-76
2022/05/24 05:38:53;;;;;;;1999.90;999.90;;;;;;;24.99;58.52;94453.75;5029669;28;20440;-72
2022/05/24 05:41:21;;;;;;;1999.90;999.90;;;;;;;25.02;58.04;94422.97;5029158;28;20084;-72
2022/05/24 05:43:47;;;;;;;1999.90;999.90;;;;;;;25.18;57.94;94435.97;5031186;28;20383;-76
2022/05/24 05:46:14;;;;;;;1999.90;999.90;;;;;;;25.46;57.57;94438.19;5026488;28;20086;-75
2022/05/24 05:48:40;;;;;;;1999.90;999.90;;;;;;;25.67;57.73;94461.53;5026276;28;20026;-78
2022/05/24 05:51:08;;;;;;;1999.90;999.90;;;;;;;25.71;57.32;94448.63;5028161;28;20034;-75
2022/05/24 05:53:35;;;;;;;1999.90;999.90;;;;;;;25.61;57.28;94419.63;5029463;28;20462;-73
2022/05/24 05:56:01;;;;;;;1999.90;999.90;;;;;;;25.79;57.33;94460.19;5026340;28;20028;-74
2022/05/24 05:58:28;;;;;;;1999.90;999.90;;;;;;;25.77;57.52;94449.72;5030519;28;20026;-73
2022/05/24 06:00:54;;;;;;;1999.90;999.90;;;;;;;25.93;57.79;94473.53;5027147;28;20106;-73
2022/05/24 06:03:23;;;;;;;1999.90;999.90;;;;;;;25.99;57.31;94466.41;5031805;28;20462;-73
2022/05/24 06:05:51;;;;;;;1999.90;999.90;;;;;;;25.85;57.34;94448.41;5030512;28;20471;-74
2022/05/24 06:08:17;;;;;;;1999.90;999.90;;;;;;;26.15;57.39;94479.31;5028703;28;20037;-74
2022/05/24 06:10:42;;;;;;;1999.90;999.90;;;;;;;25.38;56.10;94480.34;5030548;28;20025;-70
2022/05/24 06:13:08;;;;;;;1999.90;999.90;;;;;;;23.74;56.02;94464.28;5030153;28;20480;-71
2022/05/24 06:15:34;;;;;;;1999.90;999.90;;;;;;;24.77;57.49;94462.25;5030317;28;20432;-71
2022/05/24 06:18:00;;;;;;;1999.90;999.90;;;;;;;24.87;56.66;94466.72;5030927;28;20116;-71
2022/05/24 06:20:29;;;;;;;1999.90;999.90;;;;;;;24.79;56.94;94492.50;5031117;28;20104;-72
2022/05/24 06:22:55;;;;;;;1999.90;999.90;;;;;;;23.40;57.37;94488.66;5028790;28;20037;-73
2022/05/24 06:25:22;;;;;;;1999.90;999.90;;;;;;;24.44;56.54;94503.88;5031167;28;20026;-72
2022/05/24 06:27:51;;;;;;;1999.90;999.90;;;;;;;23.97;55.75;94509.06;5031021;28;20036;-72
2022/05/24 06:30:19;;;;;;;1999.90;999.90;;;;;;;24.01;58.00;94507.84;5028350;28;20025;-72
2022/05/24 06:32:44;;;;;;;1999.90;999.90;;;;;;;22.92;57.80;94500.25;5030975;28;20022;-72
2022/05/24 06:35:09;;;;;;;1999.90;999.90;;;;;;;22.97;58.60;94501.78;5030708;28;20033;-72
2022/05/24 06:37:35;;;;;;;1999.90;999.90;;;;;;;21.82;62.28;94498.06;5028914;28;20108;-72
2022/05/24 06:40:01;;;;;;;1999.90;999.90;;;;;;;21.92;61.86;94506.16;5030256;28;20029;-72
2022/05/24 06:42:26;;;;;;;1999.90;999.90;;;;;;;21.37;62.75;94516.69;5029790;28;20048;-72
2022/05/24 06:44:51;;;;;;;1999.90;999.90;;;;;;;22.51;61.03;94505.53;5030912;28;20057;-72
2022/05/24 06:47:17;;;;;;;1999.90;999.90;;;;;;;22.43;61.15;94501.31;5030844;28;20021;-71
2022/05/24 06:49:42;;;;;;;1999.90;999.90;;;;;;;22.72;61.39;94512.75;5030611;28;20083;-72
2022/05/24 06:52:08;;;;;;;1999.90;999.90;;;;;;;22.71;61.61;94506.56;5030000;28;20079;-72
2022/05/24 06:54:35;;;;;;;1999.90;999.90;;;;;;;23.66;60.78;94514.44;5030626;28;20075;-71
2022/05/24 06:57:02;;;;;;;1999.90;999.90;;;;;;;23.14;59.39;94509.03;5029731;28;20470;-72
2022/05/24 07:02:27;;;;;;;1999.90;999.90;;;;;;;22.09;62.11;94528.13;5030522;28;20087;-72
2022/05/24 07:04:59;;;;;;;1999.90;999.90;;;;;;;22.71;60.44;94547.25;5029248;28;20108;-72
2022/05/24 07:07:25;;;;;;;1999.90;999.90;;;;;;;21.25;63.49;94513.19;5029893;28;20040;-73
2022/05/24 07:09:54;;;;;;;1999.90;999.90;;;;;;;21.16;64.76;94537.13;5029724;28;20026;-72
2022/05/24 07:12:21;;;;;;;1999.90;999.90;;;;;;;20.65;66.27;94543.63;5030189;28;20036;-73
2022/05/24 07:14:47;;;;;;;1999.90;999.90;;;;;;;21.35;64.39;94557.66;5030447;28;20029;-72
2022/05/24 07:17:14;;;;;;;1999.90;999.90;;;;;;;21.36;63.14;94545.69;5030552;28;20167;-72
2022/05/24 07:19:39;;;;;;;1999.90;999.90;;;;;;;22.20;62.71;94547.84;5029609;28;20367;-71
2022/05/24 07:22:06;;;;;;;1999.90;999.90;;;;;;;22.47;62.11;94561.69;5029633;28;20025;-72
2022/05/24 07:24:31;;;;;;;1999.90;999.90;;;;;;;22.75;61.74;94566.97;5029368;28;20071;-72
2022/05/24 07:26:56;;;;;;;1999.90;999.90;;;;;;;22.64;60.89;94573.63;5029261;28;20029;-72
2022/05/24 07:29:23;;;;;;;1999.90;999.90;;;;;;;21.84;61.38;94560.69;5027007;28;20097;-71
2022/05/24 07:31:48;;;;;;;1999.90;999.90;;;;;;;20.38;65.05;94585.59;5030033;28;20029;-70
2022/05/24 07:34:14;;;;;;;1999.90;999.90;;;;;;;20.35;64.09;94518.81;5029660;28;20029;-72
2022/05/24 07:36:39;;;;;;;1999.90;999.90;;;;;;;20.47;65.04;94596.81;5029935;28;20072;-72
2022/05/24 07:39:05;;;;;;;1999.90;999.90;;;;;;;20.53;63.94;94591.84;5029195;28;20521;-72
2022/05/24 07:46:58;;;;;;;1999.90;999.90;;;;;;;18.47;71.68;94597.88;5028443;28;20041;-69
2022/05/24 07:49:24;;;;;;;1999.90;999.90;;;;;;;19.33;69.66;94598.78;5027238;28;20030;-70
2022/05/24 07:51:50;;;;;;;1999.90;999.90;;;;;;;18.79;70.91;94621.75;5029880;28;20025;-69
2022/05/24 07:54:15;;;;;;;1999.90;999.90;;;;;;;18.92;71.02;94604.16;5027397;28;20124;-70
2022/05/24 07:56:42;;;;;;;1999.90;999.90;;;;;;;19.44;69.30;94615.81;5026428;28;20089;-70
2022/05/24 07:59:08;;;;;;;1999.90;999.90;;;;;;;18.96;70.98;94618.47;5029298;28;20052;-69
2022/05/24 08:01:34;;;;;;;1999.90;999.90;;;;;;;19.16;69.31;94632.53;5029777;28;20568;-69
2022/05/24 08:04:00;;;;;;;1999.90;999.90;;;;;;;19.36;69.89;94631.16;5029525;28;20069;-68
2022/05/24 08:06:25;;;;;;;1999.90;999.90;;;;;;;19.60;68.80;94620.97;5027996;28;20029;-69
2022/05/24 08:08:50;;;;;;;1999.90;999.90;;;;;;;19.61;67.86;94627.94;5027230;28;20140;-69
2022/05/24 08:11:16;;;;;;;1999.90;999.90;;;;;;;19.54;69.00;94650.19;5028672;28;20427;-71
2022/05/24 08:13:41;;;;;;;1999.90;999.90;;;;;;;20.73;66.94;94653.31;5029604;28;20535;-70
2022/05/24 08:16:06;;;;;;;1999.90;999.90;;;;;;;19.52;67.85;94625.53;5029474;28;20091;-68
2022/05/24 08:18:32;;;;;;;1999.90;999.90;;;;;;;19.95;67.06;94626.63;5027967;28;20033;-69
2022/05/24 08:20:59;;;;;;;1999.90;999.90;;;;;;;19.40;68.27;94661.66;5029618;28;20513;-70
2022/05/24 08:23:27;;;;;;;1999.90;999.90;;;;;;;19.17;68.03;94620.59;5028752;28;20083;-70
2022/05/24 08:25:54;;;;;;;1999.90;999.90;;;;;;;20.19;66.07;94673.06;5026728;28;20041;-71
2022/05/24 08:28:20;;;;;;;1999.90;999.90;;;;;;;19.95;66.54;94679.84;5027736;28;20030;-72
2022/05/24 08:30:45;;;;;;;1999.90;999.90;;;;;;;20.29;65.21;94675.06;5030399;28;20551;-72
2022/05/24 08:33:13;;;;;;;1999.90;999.90;;;;;;;21.21;64.87;94676.63;5032224;28;20031;-70
2022/05/24 08:35:38;;;;;;;1999.90;999.90;;;;;;;20.10;66.42;94686.13;5033293;28;20466;-70
2022/05/24 08:38:05;;;;;;;1999.90;999.90;;;;;;;20.74;65.75;94671.06;5030628;28;20075;-72
2022/05/24 08:40:34;;;;;;;1999.90;999.90;;;;;;;20.60;65.36;94659.44;5032032;28;20402;-70
2022/05/24 08:43:21;;;;;;;1999.90;999.90;;;;;;;20.07;66.48;94682.25;5033154;28;20026;-70
2022/05/24 08:48:53;;;;;;;1999.90;999.90;;;;;;;20.92;64.31;94676.53;5033030;28;20099;-71
2022/05/24 08:51:47;;;;;;;1999.90;999.90;;;;;;;20.31;63.14;94667.34;5031582;28;20132;-71
2022/05/24 08:54:21;;;;;;;1999.90;999.90;;;;;;;20.29;64.53;94682.38;5023905;28;20517;-70
2022/05/24 08:56:46;;;;;;;1999.90;999.90;;;;;;;21.17;63.22;94690.13;5031865;28;20075;-70
2022/05/24 08:59:21;;;;;;;1999.90;999.90;;;;;;;21.68;60.72;94683.69;5032631;28;20108;-71
2022/05/24 09:01:48;;;;;;;1999.90;999.90;;;;;;;21.74;61.35;94684.06;5032989;28;20052;-70
2022/05/24 09:04:14;;;;;;;1999.90;999.90;;;;;;;21.98;61.32;94685.25;5032657;28;20018;-71
2022/05/24 09:06:43;;;;;;;1999.90;999.90;;;;;;;22.38;59.79;94675.16;5029494;28;20028;-70
2022/05/24 09:09:15;;;;;;;1999.90;999.90;;;;;;;22.88;60.58;94683.13;5030300;28;20113;-71
2022/05/24 09:11:43;;;;;;;1999.90;999.90;;;;;;;22.34;60.47;94677.09;5032551;28;20080;-71
2022/05/24 09:14:47;;;;;;;1999.90;999.90;;;;;;;22.19;60.59;94662.81;5032247;28;20021;-71
2022/05/24 09:17:33;;;;;;;1999.90;999.90;;;;;;;23.16;60.51;94672.19;4992423;28;20050;-71
2022/05/24 09:19:58;;;;;;;1999.90;999.90;;;;;;;23.50;59.90;94641.75;5011706;28;20145;-70
2022/05/24 09:22:31;;;;;;;1999.90;999.90;;;;;;;23.86;59.21;94672.91;5011501;28;20070;-71
2022/05/24 09:24:56;;;;;;;1999.90;999.90;;;;;;;24.14;58.92;94654.81;5027335;28;20048;-72
2022/05/24 09:27:25;;;;;;;1999.90;999.90;;;;;;;23.91;57.54;94638.34;5032348;28;20489;-71
2022/05/24 09:30:21;;;;;;;1999.90;999.90;;;;;;;24.46;57.73;94672.78;5030845;28;20017;-71
2022/05/24 09:32:47;;;;;;;1999.90;999.90;;;;;;;24.42;57.84;94672.06;5032204;28;20034;-71
2022/05/24 09:35:15;;;;;;;1999.90;999.90;;;;;;;24.02;56.99;94679.78;5031222;28;20033;-71
2022/05/24 09:37:42;;;;;;;1999.90;999.90;;;;;;;24.22;57.93;94672.59;5032275;28;20171;-68
2022/05/24 09:40:21;;;;;;;1999.90;999.90;;;;;;;24.72;58.30;94687.63;5028270;28;20032;-68
2022/05/24 09:42:47;;;;;;;1999.90;999.90;;;;;;;24.90;57.98;94678.09;5030164;28;20084;-68
2022/05/24 09:45:16;;;;;;;1999.90;999.90;;;;;;;24.97;57.57;94704.44;5032056;28;20087;-69
2022/05/24 09:47:41;;;;;;;1999.90;999.90;;;;;;;24.92;58.16;94701.41;5032092;28;20025;-69
2022/05/24 09:50:26;;;;;;;1999.90;999.90;;;;;;;24.93;58.15;94705.66;5031339;28;20382;-71
2022/05/24 09:53:03;;;;;;;1999.90;999.90;;;;;;;24.75;57.38;94708.59;5030812;28;20101;-69
2022/05/24 09:55:45;;;;;;;1999.90;999.90;;;;;;;24.83;58.03;94699.19;5030187;28;20033;-68
2022/05/24 09:58:21;;;;;;;1999.90;999.90;;;;;;;25.10;57.79;94710.16;5030491;28;20033;-69
2022/05/24 10:00:59;;;;;;;1999.90;999.90;;;;;;;25.32;57.42;94697.81;5032313;28;20018;-68
2022/05/24 10:03:29;;;;;;;1999.90;999.90;;;;;;;25.58;57.12;94681.91;5030452;28;20385;-68
2022/05/24 10:06:06;;;;;;;1999.90;999.90;;;;;;;25.98;56.26;94709.38;5030761;28;20108;-68
2022/05/24 10:08:45;;;;;;;1999.90;999.90;;;;;;;26.08;55.60;94709.19;5028433;28;20033;-68
2022/05/24 10:11:29;;;;;;;1999.90;999.90;;;;;;;26.32;56.24;94718.16;5030066;28;20037;-70
2022/05/24 10:14:30;;;;;;;1999.90;999.90;;;;;;;26.64;55.53;94700.47;5030715;28;20116;-69
2022/05/24 10:17:19;;;;;;;1999.90;999.90;;;;;;;27.00;54.96;94724.34;5030799;28;20160;-69
2022/05/24 10:20:08;;;;;;;1999.90;999.90;;;;;;;27.28;54.84;94701.97;5030508;28;20052;-76
2022/05/24 10:22:50;;;;;;;1999.90;999.90;;;;;;;27.95;54.38;94729.03;5029664;28;20038;-71
2022/05/24 10:25:28;;;;;;;1999.90;999.90;;;;;;;28.43;53.21;94728.25;5030967;28;20022;-71
2022/05/24 10:28:31;;;;;;;1999.90;999.90;;;;;;;28.67;52.98;94730.81;5031384;28;20104;-69
2022/05/24 10:31:18;;;;;;;1999.90;999.90;;;;;;;29.16;52.92;94733.41;5029865;28;20137;-69
2022/05/24 10:40:15;;;;;;;1999.90;999.90;;;;;;;27.51;52.83;94739.31;5022383;28;20486;-70
2022/05/24 10:43:09;;;;;;;1999.90;999.90;;;;;;;25.98;48.94;94731.94;5030873;28;20394;-70
2022/05/24 10:46:04;;;;;;;1999.90;999.90;;;;;;;26.60;54.29;94737.94;5029256;28;20088;-70
2022/05/24 10:48:43;;;;;;;1999.90;999.90;;;;;;;27.06;54.52;94731.63;5030352;28;20033;-69
2022/05/24 10:51:15;;;;;;;1999.90;999.90;;;;;;;27.69;53.96;94745.19;5027298;28;20482;-69
2022/05/24 10:53:57;;;;;;;1999.90;999.90;;;;;;;27.86;52.99;94726.09;5008499;28;20033;-70
2022/05/24 10:56:22;;;;;;;1999.90;999.90;;;;;;;27.14;49.75;94748.69;5009580;28;20554;-71
2022/05/24 10:58:49;;;;;;;1999.90;999.90;;;;;;;27.32;52.71;94745.56;5009088;28;20172;-69
2022/05/24 11:01:25;;;;;;;1999.90;999.90;;;;;;;27.32;53.42;94727.22;5010842;28;20471;-69
2022/05/24 11:03:56;;;;;;;1999.90;999.90;;;;;;;27.18;52.68;94735.72;5028274;28;20110;-71
2022/05/24 11:06:35;;;;;;;1999.90;999.90;;;;;;;27.11;52.96;94730.41;5029301;28;20069;-70
2022/05/24 11:09:04;;;;;;;1999.90;999.90;;;;;;;27.50;54.07;94743.25;5028066;28;20029;-71
2022/05/24 11:11:41;;;;;;;1999.90;999.90;;;;;;;27.00;52.45;94751.66;5030298;28;20030;-71
2022/05/24 11:14:36;;;;;;;1999.90;999.90;;;;;;;27.19;53.68;94759.09;5029260;28;20096;-71
2022/05/24 11:17:02;;;;;;;1999.90;999.90;;;;;;;26.67;53.82;94732.38;5028710;28;20021;-72
2022/05/24 11:19:38;;;;;;;1999.90;999.90;;;;;;;26.25;51.92;94726.44;5029760;28;20060;-72
2022/05/24 11:22:16;;;;;;;1999.90;999.90;;;;;;;24.09;52.46;94755.78;5028613;28;20025;-71
2022/05/24 11:25:12;;;;;;;1999.90;999.90;;;;;;;24.88;54.97;94762.09;5028175;28;20040;-71
2022/05/24 11:27:44;;;;;;;1999.90;999.90;;;;;;;25.73;55.23;94756.00;5030157;28;20504;-72
2022/05/24 11:30:36;;;;;;;1999.90;999.90;;;;;;;25.55;54.89;94765.22;5027265;28;20644;-71
2022/05/24 11:33:07;;;;;;;1999.90;999.90;;;;;;;26.21;54.87;94761.19;5030090;28;20021;-72
2022/05/24 11:35:35;;;;;;;1999.90;999.90;;;;;;;25.71;54.46;94763.84;5029180;28;20040;-73
2022/05/24 11:38:22;;;;;;;1999.90;999.90;;;;;;;26.20;54.66;94765.06;5029326;28;20029;-72